SBBISBSP

Guest
Details From SBBI - Curitiba Bacacheri
To SBSP - Sao Paulo Congonhas
Flight Number -
Tags Decoded
Created
Modified
Stats Distance 216 nm / 400 km
Max Altitude 0 ft / 0 m
Waypoints 4
Social Downloads 1
Likes 0
Share VATSIM

Download

Looking for another format? Having issues loading an existing format? Contact us
Advertisement - Login to hide

Notes

Decoded

Route

SBBI SBCT SBGR SBSP

ID Type Via Altitude Latitude Longitude Leg Dist Tot Dist Heading (true) Name
O SBBI APT - 0 ft / 0 m -25.39926˚ -49.23469˚ - 0 nm - -
SBCT APT - 0 ft / 0 m -25.52836˚ -49.18010˚ 8 nm 8 nm 159° / 159° -
SBGR APT - 0 ft / 0 m -23.43891˚ -46.48745˚ 193 nm 201 nm 50° / 49° -
O SBSP APT - 0 ft / 0 m -23.62070˚ -46.65829˚ 14 nm 216 nm 221° / 221° -

Altitude Profile

Advertisement - Login to hide

Weather


0- 5 10 15 20 25 30 35+ Temperature / ° C

Clouds and Precipitation
Forecast for 2017-12-18 06:00 UTC. Updated an hour ago

Ground ~20,000 ft ~40,000 ft Winds

SBBI

Details ICAO SBBI (BFH)
Name Curitiba Bacacheri
Region Brazil
Timezone America/Sao_Paulo (UTC-2.0)
Stats Elevation 3,057 ft / 932 m (AMSL)
Location -25.405079° -49.232036°
Runways 1
Magnetic Variation 19.615° W

METAR

Not found

TAF

TAF SBBI 171430Z 1718/1806 33008KT 9999 SCT035 TX31/1718Z TN20/1805Z BECMG 1722/1724 03005KT SCT020 BECMG 1800/1802 08006KT BKN011 PROB30 1802/1803 9000 RA BKN009 RMK PER

Decode

Departure Runways

ID Width Length Bearing (true) Bearing (mag) Surface Threshold Offset Overrun Length
18 98 ft / 30 m 4,591 ft / 1,399 m 157.57° 177.19° Asphalt 527 ft / 161 m 0 ft / 0 m
36 98 ft / 30 m 4,591 ft / 1,399 m 337.56° 357.18° Asphalt 350 ft / 107 m 0 ft / 0 m

SBSP

Details ICAO SBSP (CGH)
Name Sao Paulo Congonhas
Region Brazil
Timezone America/Sao_Paulo (UTC-2.0)
Stats Elevation 2,631 ft / 802 m (AMSL)
Location -23.626693° -46.655377°
Runways 2
Magnetic Variation 21.296° W

METAR

SBSP 180420Z AUTO 33010KT 9999 -RA

Decode

TAF

TAF SBSP 172119Z 1800/1824 35005KT CAVOK TN22/1809Z TX29/1817Z BECMG 1807/1809 33005KT BECMG 1812/1814 27010KT SCT040 PROB40 1815/1821 18010KT 8000 TSRA BKN010 FEW045CB BECMG 1821/1823 15008KT 8000 RA BKN009 RMK PGN

Decode

Destination Runways

ID Width Length Bearing (true) Bearing (mag) Surface Threshold Offset Overrun Length
17L 147 ft / 45 m 4,726 ft / 1,441 m 147.28° 168.58° Asphalt 0 ft / 0 m 220 ft / 67 m
17R 147 ft / 45 m 6,406 ft / 1,953 m 147.39° 168.69° Asphalt 413 ft / 126 m 0 ft / 0 m
35L 147 ft / 45 m 6,406 ft / 1,953 m 327.38° 348.68° Asphalt 200 ft / 61 m 0 ft / 0 m
35R 147 ft / 45 m 4,726 ft / 1,441 m 327.28° 348.58° Asphalt 0 ft / 0 m 0 ft / 0 m

Approach Navaids

Runway Type Ident Frequency Range Bearing (true) Bearing (mag) Slope Elevation
17R Localiser ISP 109.30 MHz 18 nm / 33 km 147.03° 168.32° - 2,631 ft / 802 m (AMSL)
17R Glidescope ISP 109.30 MHz 10 nm / 19 km 147.38° 168.68° 2.90° 2,631 ft / 802 m (AMSL)
35L Localiser ICO 110.10 MHz 18 nm / 33 km 328.14° 349.44° - 2,631 ft / 802 m (AMSL)

Popular Alternatives